createdAt,value
2023-05-14T00:00:01.935Z,8.63
2023-05-14T00:02:29.950Z,8.27
2023-05-14T00:04:57.861Z,9.10
2023-05-14T00:07:30.738Z,8.50
2023-05-14T00:09:58.915Z,8.45
2023-05-14T00:12:27.332Z,8.43
2023-05-14T00:14:56.645Z,8.33
2023-05-14T00:19:52.090Z,8.10
2023-05-14T00:22:19.931Z,8.20
2023-05-14T00:24:47.784Z,8.40
2023-05-14T00:27:15.649Z,8.57
2023-05-14T00:29:43.475Z,8.43
2023-05-14T00:32:12.698Z,7.70
2023-05-14T00:34:40.497Z,8.38
2023-05-14T00:37:08.320Z,8.68
2023-05-14T00:39:36.147Z,9.07
2023-05-14T00:42:04.009Z,8.13
2023-05-14T00:44:31.849Z,7.80
2023-05-14T00:47:00.665Z,7.65
2023-05-14T00:49:30.572Z,8.00
2023-05-14T00:52:00.345Z,8.23
2023-05-14T00:54:29.183Z,7.93
2023-05-14T00:56:57.386Z,8.60
2023-05-14T00:59:25.210Z,7.90
2023-05-14T01:01:53.116Z,7.55
2023-05-14T01:04:21.306Z,8.55
2023-05-14T01:06:57.285Z,8.10
2023-05-14T01:09:31.018Z,7.97
2023-05-14T01:12:05.826Z,8.85
2023-05-14T01:14:41.027Z,9.07
2023-05-14T01:17:11.927Z,8.40
2023-05-14T01:19:41.528Z,9.07
2023-05-14T01:22:11.747Z,9.23
2023-05-14T01:24:40.346Z,9.20
2023-05-14T01:27:14.373Z,9.85
2023-05-14T01:29:46.439Z,8.77
2023-05-14T01:32:14.938Z,8.82
2023-05-14T01:34:43.001Z,9.68
2023-05-14T01:37:13.793Z,9.50
2023-05-14T01:39:43.095Z,9.43
2023-05-14T01:44:40.117Z,7.90
2023-05-14T01:47:08.004Z,7.97
2023-05-14T01:49:37.166Z,9.27
2023-05-14T01:52:05.309Z,8.88
2023-05-14T01:54:34.452Z,8.15
2023-05-14T01:57:02.282Z,9.02
2023-05-14T01:59:30.529Z,8.65
2023-05-14T02:01:58.476Z,8.65
2023-05-14T02:04:26.528Z,8.65
2023-05-14T02:06:54.498Z,8.68
2023-05-14T02:09:25.415Z,8.55
2023-05-14T02:11:54.643Z,8.80
2023-05-14T02:14:22.525Z,8.43
2023-05-14T02:16:51.058Z,8.68
2023-05-14T02:19:18.909Z,8.88
2023-05-14T02:21:46.913Z,9.55
2023-05-14T02:24:14.879Z,9.23
2023-05-14T02:26:43.021Z,9.70
2023-05-14T02:29:12.211Z,8.68
2023-05-14T02:31:40.119Z,8.93
2023-05-14T02:34:08.036Z,8.93
2023-05-14T02:36:35.843Z,8.82
2023-05-14T02:39:04.652Z,9.55
2023-05-14T02:41:32.500Z,8.85
2023-05-14T02:44:00.351Z,8.70
2023-05-14T02:46:29.758Z,8.85
2023-05-14T02:51:26.438Z,8.95
2023-05-14T02:53:54.330Z,9.25
2023-05-14T02:56:22.334Z,8.98
2023-05-14T02:58:50.148Z,8.82
2023-05-14T03:01:18.825Z,8.50
2023-05-14T03:06:16.857Z,7.93
2023-05-14T03:08:44.670Z,8.45
2023-05-14T03:11:12.580Z,7.97
2023-05-14T03:13:40.405Z,8.30
2023-05-14T03:16:08.732Z,8.98
2023-05-14T03:18:37.486Z,8.63
2023-05-14T03:21:06.722Z,9.18
2023-05-14T03:26:03.807Z,9.68
2023-05-14T03:28:31.714Z,9.38
2023-05-14T03:31:01.042Z,9.75
2023-05-14T03:33:29.280Z,9.88
2023-05-14T03:35:57.110Z,9.20
2023-05-14T03:38:26.294Z,9.20
2023-05-14T03:40:54.179Z,9.23
2023-05-14T03:43:22.014Z,8.70
2023-05-14T03:45:52.408Z,8.52
2023-05-14T03:48:20.601Z,10.20
2023-05-14T03:50:49.027Z,9.18
2023-05-14T03:53:16.850Z,10.50
2023-05-14T03:55:47.906Z,9.55
2023-05-14T03:58:15.854Z,10.55
2023-05-14T04:00:44.116Z,9.80
2023-05-14T04:03:12.303Z,10.57
2023-05-14T04:05:40.218Z,9.43
2023-05-14T04:08:08.090Z,9.52
2023-05-14T04:10:36.017Z,9.35
2023-05-14T04:13:05.253Z,9.57
2023-05-14T04:15:39.165Z,9.50
2023-05-14T04:18:07.291Z,9.43
2023-05-14T04:20:35.177Z,9.20
2023-05-14T04:23:03.037Z,8.68
2023-05-14T04:25:30.866Z,8.90
2023-05-14T04:27:58.964Z,8.75
2023-05-14T04:30:28.125Z,9.68
2023-05-14T04:32:55.973Z,9.60
2023-05-14T04:35:25.005Z,9.98
2023-05-14T04:37:53.103Z,9.50
2023-05-14T04:40:21.164Z,9.00
2023-05-14T04:42:49.190Z,9.57
2023-05-14T04:45:17.047Z,8.23
2023-05-14T04:47:47.515Z,6.05
2023-05-14T04:50:15.536Z,6.97
2023-05-14T04:52:43.469Z,6.95
2023-05-14T04:55:11.391Z,8.20
2023-05-14T04:57:39.209Z,7.15
2023-05-14T05:00:09.573Z,6.88
2023-05-14T05:02:37.427Z,8.38
2023-05-14T05:05:07.226Z,7.25
2023-05-14T05:07:35.052Z,7.00
2023-05-14T05:10:02.885Z,6.32
2023-05-14T05:12:30.973Z,7.63
2023-05-14T05:14:58.974Z,8.80
2023-05-14T05:17:26.937Z,7.10
2023-05-14T05:19:55.002Z,9.20
2023-05-14T05:22:24.623Z,8.77
2023-05-14T05:24:52.415Z,9.18
2023-05-14T05:27:21.051Z,7.32
2023-05-14T05:29:48.941Z,8.30
2023-05-14T05:32:16.838Z,8.13
2023-05-14T05:34:44.675Z,8.65
2023-05-14T05:37:14.032Z,9.15
2023-05-14T05:39:43.180Z,9.98
2023-05-14T05:44:38.553Z,9.88
2023-05-14T05:47:06.974Z,9.07
2023-05-14T05:49:36.794Z,9.40
2023-05-14T05:52:05.069Z,11.00
2023-05-14T05:54:33.294Z,11.25
2023-05-14T05:57:02.499Z,9.18
2023-05-14T05:59:30.598Z,9.57
2023-05-14T06:01:58.597Z,8.37
2023-05-14T06:04:26.409Z,10.90
2023-05-14T06:06:54.234Z,8.55
2023-05-14T06:09:22.083Z,9.85
2023-05-14T06:11:49.910Z,10.20
2023-05-14T06:14:19.136Z,9.05
2023-05-14T06:16:46.990Z,9.68
2023-05-14T06:19:14.902Z,10.87
2023-05-14T06:21:42.764Z,12.67
2023-05-14T06:24:11.106Z,10.50
2023-05-14T06:26:39.289Z,9.68
2023-05-14T06:29:07.091Z,10.77
2023-05-14T06:31:36.269Z,9.02
2023-05-14T06:34:04.282Z,9.52
2023-05-14T06:36:32.102Z,12.40
2023-05-14T06:38:59.880Z,13.93
2023-05-14T06:41:27.673Z,12.88
2023-05-14T06:43:55.466Z,13.48
2023-05-14T06:46:23.272Z,11.48
2023-05-14T06:48:52.468Z,13.45
2023-05-14T06:53:48.862Z,11.98
2023-05-14T06:56:16.749Z,10.65
2023-05-14T06:58:44.554Z,10.07
2023-05-14T07:01:12.389Z,13.23
2023-05-14T07:03:40.432Z,13.60
2023-05-14T07:06:11.229Z,15.80
2023-05-14T07:08:40.404Z,14.35
2023-05-14T07:11:08.254Z,18.27
2023-05-14T07:13:36.244Z,13.50
2023-05-14T07:16:04.091Z,17.17
2023-05-14T07:18:32.192Z,15.05
2023-05-14T07:21:00.003Z,16.30
2023-05-14T07:23:29.153Z,17.70
2023-05-14T07:28:24.578Z,17.95
2023-05-14T07:30:52.501Z,19.35
2023-05-14T07:33:20.353Z,18.95
2023-05-14T07:35:48.221Z,17.75
2023-05-14T07:38:16.220Z,17.00
2023-05-14T07:40:45.558Z,18.02
2023-05-14T07:43:13.385Z,16.52
2023-05-14T07:45:41.264Z,21.33
2023-05-14T07:48:09.310Z,19.48
2023-05-14T07:50:38.090Z,19.08
2023-05-14T07:53:06.066Z,18.38
2023-05-14T07:55:33.908Z,20.38
2023-05-14T07:58:03.127Z,20.92
2023-05-14T08:02:58.792Z,20.10
2023-05-14T08:05:26.731Z,21.38
2023-05-14T08:07:54.609Z,20.95
2023-05-14T08:10:22.883Z,22.27
2023-05-14T08:12:50.969Z,20.05
2023-05-14T08:15:20.326Z,23.65
2023-05-14T08:17:48.217Z,23.75
2023-05-14T08:20:16.103Z,20.30
2023-05-14T08:22:43.902Z,22.90
2023-05-14T08:25:12.095Z,21.50
2023-05-14T08:27:39.915Z,21.00
2023-05-14T08:30:08.828Z,21.30
2023-05-14T08:32:38.574Z,20.85
2023-05-14T08:35:07.539Z,20.77
2023-05-14T08:37:35.391Z,21.35
2023-05-14T08:40:03.345Z,20.52
2023-05-14T08:42:31.860Z,19.23
2023-05-14T08:45:02.922Z,19.63
2023-05-14T08:47:31.733Z,17.40
2023-05-14T08:50:04.379Z,22.13
2023-05-14T08:52:32.874Z,21.13
2023-05-14T08:55:03.859Z,20.63
2023-05-14T08:57:33.638Z,19.92
2023-05-14T09:00:01.842Z,19.77
2023-05-14T09:02:31.449Z,18.83
2023-05-14T09:05:03.469Z,18.65
2023-05-14T09:07:31.412Z,21.17
2023-05-14T09:10:00.310Z,21.52
2023-05-14T09:12:28.202Z,21.75
2023-05-14T09:14:56.041Z,22.27
2023-05-14T09:17:27.165Z,21.25
2023-05-14T09:19:55.269Z,20.90
2023-05-14T09:22:24.443Z,21.10
2023-05-14T09:25:04.865Z,21.92
2023-05-14T09:27:34.182Z,22.17
2023-05-14T09:30:09.815Z,24.70
2023-05-14T09:32:39.063Z,22.55
2023-05-14T09:35:17.357Z,21.77
2023-05-14T09:37:49.104Z,21.75
2023-05-14T09:40:18.508Z,23.05
2023-05-14T09:42:46.435Z,23.75
2023-05-14T09:45:14.421Z,22.80
2023-05-14T09:47:42.847Z,22.85
2023-05-14T09:50:11.242Z,23.45
2023-05-14T09:52:39.665Z,23.10
2023-05-14T09:55:09.872Z,23.98
2023-05-14T09:57:37.653Z,24.00
2023-05-14T10:00:06.737Z,23.60
2023-05-14T10:05:07.748Z,23.63
2023-05-14T10:07:41.465Z,21.95
2023-05-14T10:10:16.521Z,22.38
2023-05-14T10:12:50.162Z,23.38
2023-05-14T10:15:21.222Z,21.95
2023-05-14T10:17:54.299Z,21.83
2023-05-14T10:20:23.949Z,22.77
2023-05-14T10:22:52.492Z,21.67
2023-05-14T10:25:22.462Z,21.13
2023-05-14T10:27:50.393Z,21.77
2023-05-14T10:30:22.861Z,22.58
2023-05-14T10:32:50.943Z,22.48
2023-05-14T10:35:25.265Z,23.05
2023-05-14T10:37:53.338Z,22.23
2023-05-14T10:40:25.959Z,22.17
2023-05-14T10:42:54.310Z,22.90
2023-05-14T10:45:24.080Z,23.20
2023-05-14T10:47:52.083Z,22.13
2023-05-14T10:50:20.168Z,22.40
2023-05-14T10:52:47.937Z,25.33
2023-05-14T10:55:17.874Z,22.30
2023-05-14T10:57:47.581Z,24.48
2023-05-14T11:00:17.001Z,21.65
2023-05-14T11:02:45.698Z,20.30
2023-05-14T11:05:16.810Z,20.58
2023-05-14T11:07:45.766Z,20.92
2023-05-14T11:12:43.456Z,21.95
2023-05-14T11:15:14.368Z,29.77
2023-05-14T11:17:43.516Z,21.60
2023-05-14T11:20:12.969Z,20.10
2023-05-14T11:22:42.228Z,22.85
2023-05-14T11:25:11.355Z,20.70
2023-05-14T11:27:39.882Z,18.98
2023-05-14T11:30:15.740Z,20.15
2023-05-14T11:32:46.104Z,21.95
2023-05-14T11:35:14.571Z,17.42
2023-05-14T11:37:42.507Z,19.48
2023-05-14T11:40:16.223Z,19.23
2023-05-14T11:42:44.317Z,18.23
2023-05-14T11:45:13.013Z,17.97
2023-05-14T11:50:11.411Z,16.70
2023-05-14T11:52:41.411Z,15.77
2023-05-14T11:55:12.436Z,16.60
2023-05-14T11:57:40.940Z,17.67
2023-05-14T12:00:13.369Z,17.85
2023-05-14T12:02:41.385Z,16.88
2023-05-14T12:05:14.024Z,15.57
2023-05-14T12:07:45.236Z,18.15
2023-05-14T12:10:13.416Z,15.52
2023-05-14T12:12:41.252Z,15.98
2023-05-14T12:15:13.320Z,17.70
2023-05-14T12:17:41.329Z,16.63
2023-05-14T12:20:20.793Z,15.93
2023-05-14T12:22:48.687Z,15.82
2023-05-14T12:25:16.509Z,17.33
2023-05-14T12:27:46.329Z,16.20
2023-05-14T12:32:45.869Z,15.68
2023-05-14T12:35:15.101Z,14.38
2023-05-14T12:37:43.009Z,16.90
2023-05-14T12:40:11.473Z,15.18
2023-05-14T12:42:39.347Z,13.60
2023-05-14T12:45:08.715Z,12.88
2023-05-14T12:47:37.718Z,12.50
2023-05-14T12:50:06.959Z,12.75
2023-05-14T12:52:39.684Z,13.93
2023-05-14T12:55:08.739Z,13.15
2023-05-14T13:00:06.852Z,12.52
2023-05-14T13:02:42.250Z,11.32
2023-05-14T13:05:11.605Z,11.32
2023-05-14T13:07:40.892Z,10.45
2023-05-14T13:10:09.873Z,9.75
2023-05-14T13:15:07.359Z,8.30
2023-05-14T13:17:35.232Z,7.40
2023-05-14T13:20:04.250Z,7.47
2023-05-14T13:25:01.016Z,7.70
2023-05-14T13:27:30.414Z,7.97
2023-05-14T13:29:58.783Z,6.80
2023-05-14T13:32:26.787Z,6.65
2023-05-14T13:34:54.632Z,6.38
2023-05-14T13:37:22.493Z,6.70
2023-05-14T13:39:51.524Z,7.30
2023-05-14T13:42:20.848Z,6.75
2023-05-14T13:44:48.723Z,5.20
2023-05-14T13:47:16.570Z,5.05
2023-05-14T13:49:44.479Z,4.93
2023-05-14T13:52:12.262Z,5.60
2023-05-14T13:54:40.102Z,5.70
2023-05-14T13:57:07.970Z,5.07
2023-05-14T13:59:37.256Z,6.20
2023-05-14T14:02:05.900Z,5.60
2023-05-14T14:04:33.782Z,5.35
2023-05-14T14:07:01.692Z,5.50
2023-05-14T14:09:33.730Z,4.82
2023-05-14T14:12:01.693Z,4.57
2023-05-14T14:14:29.721Z,5.80
2023-05-14T14:16:59.003Z,5.78
2023-05-14T14:19:26.807Z,5.43
2023-05-14T14:21:54.661Z,5.25
2023-05-14T14:24:22.465Z,4.68
2023-05-14T14:26:50.293Z,3.65
2023-05-14T14:29:18.115Z,3.70
2023-05-14T14:31:46.022Z,4.00
2023-05-14T14:34:15.308Z,4.00
2023-05-14T14:36:43.095Z,3.53
2023-05-14T14:39:11.138Z,3.78
2023-05-14T14:41:38.968Z,3.83
2023-05-14T14:44:06.754Z,4.07
2023-05-14T14:46:34.613Z,3.78
2023-05-14T14:49:02.440Z,3.58
2023-05-14T14:51:31.620Z,3.83
2023-05-14T14:53:59.511Z,4.10
2023-05-14T14:56:28.098Z,4.20
2023-05-14T14:58:55.864Z,4.43
2023-05-14T15:01:23.758Z,4.68
2023-05-14T15:03:51.682Z,5.05
2023-05-14T15:06:19.544Z,4.38
2023-05-14T15:08:48.693Z,4.43
2023-05-14T15:11:16.545Z,5.68
2023-05-14T15:13:44.360Z,6.28
2023-05-14T15:16:12.449Z,5.75
2023-05-14T15:18:40.330Z,6.90
2023-05-14T15:21:08.206Z,5.60
2023-05-14T15:23:36.044Z,5.32
2023-05-14T15:26:05.548Z,5.68
2023-05-14T15:28:33.380Z,5.85
2023-05-14T15:31:02.437Z,6.82
2023-05-14T15:35:57.882Z,6.40
2023-05-14T15:38:25.667Z,6.68
2023-05-14T15:40:53.468Z,6.20
2023-05-14T15:43:22.728Z,6.93
2023-05-14T15:45:50.515Z,7.20
2023-05-14T15:48:18.351Z,6.90
2023-05-14T15:50:49.663Z,5.47
2023-05-14T15:53:17.818Z,5.53
2023-05-14T15:55:46.285Z,5.05
2023-05-14T15:58:14.082Z,6.13
2023-05-14T16:00:43.230Z,5.38
2023-05-14T16:03:12.335Z,4.63
2023-05-14T16:05:40.267Z,4.00
2023-05-14T16:08:08.320Z,4.40
2023-05-14T16:10:36.206Z,4.15
2023-05-14T16:13:04.111Z,4.13
2023-05-14T16:15:31.958Z,3.90
2023-05-14T16:18:01.314Z,3.70
2023-05-14T16:20:29.269Z,3.50
2023-05-14T16:22:57.102Z,3.40
2023-05-14T16:25:24.948Z,3.67
2023-05-14T16:27:52.793Z,3.70
2023-05-14T16:30:20.623Z,3.35
2023-05-14T16:32:49.653Z,3.33
2023-05-14T16:40:16.146Z,3.35
2023-05-14T16:42:44.064Z,3.10
2023-05-14T16:45:12.773Z,3.53
2023-05-14T16:47:40.697Z,3.15
2023-05-14T16:50:09.176Z,3.30
2023-05-14T16:52:38.320Z,3.08
2023-05-14T16:57:34.725Z,3.38
2023-05-14T17:00:06.019Z,3.57
2023-05-14T17:02:34.244Z,3.28
2023-05-14T17:05:02.151Z,3.33
2023-05-14T17:07:31.178Z,3.97
2023-05-14T17:10:00.671Z,3.22
2023-05-14T17:12:28.599Z,3.60
2023-05-14T17:14:56.415Z,3.22
2023-05-14T17:17:24.280Z,3.15
2023-05-14T17:19:52.085Z,3.28
2023-05-14T17:22:19.868Z,3.15
2023-05-14T17:24:47.640Z,3.60
2023-05-14T17:27:16.869Z,3.40
2023-05-14T17:29:44.724Z,3.30
2023-05-14T17:32:12.692Z,2.95
2023-05-14T17:34:40.515Z,2.78
2023-05-14T17:37:08.483Z,2.88
2023-05-14T17:39:36.504Z,3.03
2023-05-14T17:42:04.688Z,3.13
2023-05-14T17:44:33.862Z,2.80
2023-05-14T17:47:03.081Z,3.35
2023-05-14T17:49:31.081Z,2.55
2023-05-14T17:51:58.933Z,2.85
2023-05-14T17:54:26.850Z,2.80
2023-05-14T17:56:54.704Z,3.47
2023-05-14T17:59:24.199Z,3.13
2023-05-14T18:01:53.856Z,3.20
2023-05-14T18:04:21.690Z,3.50
2023-05-14T18:06:49.580Z,3.58
2023-05-14T18:09:17.508Z,3.55
2023-05-14T18:11:46.008Z,3.30
2023-05-14T18:14:14.096Z,4.40
2023-05-14T18:16:42.000Z,3.80
2023-05-14T18:19:11.555Z,4.05
2023-05-14T18:21:39.657Z,4.10
2023-05-14T18:24:08.242Z,3.83
2023-05-14T18:26:36.284Z,3.90
2023-05-14T18:29:04.143Z,4.00
2023-05-14T18:31:32.169Z,4.10
2023-05-14T18:34:00.197Z,4.20
2023-05-14T18:36:29.407Z,3.35
2023-05-14T18:41:24.916Z,3.58
2023-05-14T18:43:52.742Z,3.38
2023-05-14T18:46:20.781Z,3.55
2023-05-14T18:48:48.737Z,3.80
2023-05-14T18:51:16.585Z,3.47
2023-05-14T18:53:45.729Z,3.53
2023-05-14T18:58:41.225Z,4.07
2023-05-14T19:01:09.102Z,3.25
2023-05-14T19:03:37.057Z,3.55
2023-05-14T19:06:05.104Z,3.55
2023-05-14T19:08:32.922Z,3.90
2023-05-14T19:11:02.124Z,3.35
2023-05-14T19:15:58.205Z,3.27
2023-05-14T19:18:26.122Z,3.47
2023-05-14T19:20:53.947Z,3.28
2023-05-14T19:23:21.741Z,3.38
2023-05-14T19:25:49.693Z,3.92
2023-05-14T19:28:19.901Z,3.30
2023-05-14T19:30:47.773Z,3.33
2023-05-14T19:33:15.660Z,3.90
2023-05-14T19:35:43.618Z,3.45
2023-05-14T19:38:11.401Z,3.78
2023-05-14T19:40:39.208Z,3.95
2023-05-14T19:43:07.886Z,3.88
2023-05-14T19:45:39.201Z,4.28
2023-05-14T19:48:07.322Z,3.80
2023-05-14T19:50:36.848Z,4.00
2023-05-14T19:53:05.091Z,3.97
2023-05-14T19:55:33.398Z,3.90
2023-05-14T19:58:01.246Z,4.20
2023-05-14T20:00:29.085Z,4.00
2023-05-14T20:02:59.546Z,4.07
2023-05-14T20:05:27.870Z,4.30
2023-05-14T20:07:55.691Z,3.83
2023-05-14T20:10:24.258Z,4.28
2023-05-14T20:12:52.227Z,4.50
2023-05-14T20:15:20.101Z,4.43
2023-05-14T20:17:47.952Z,4.38
2023-05-14T20:20:17.637Z,4.28
2023-05-14T20:22:45.456Z,3.90
2023-05-14T20:25:13.652Z,4.43
2023-05-14T20:27:41.493Z,4.30
2023-05-14T20:30:10.047Z,4.05
2023-05-14T20:32:37.988Z,4.05
2023-05-14T20:35:06.685Z,4.30
2023-05-14T20:37:35.869Z,4.50
2023-05-14T20:45:00.670Z,4.60
2023-05-14T20:47:30.542Z,4.75
2023-05-14T20:49:58.403Z,5.05
2023-05-14T20:52:26.226Z,4.72
2023-05-14T20:54:55.486Z,5.75
2023-05-14T20:59:51.355Z,6.20
2023-05-14T21:02:19.340Z,6.10
2023-05-14T21:04:47.303Z,5.97
2023-05-14T21:07:15.137Z,5.68
2023-05-14T21:09:46.327Z,5.97
2023-05-14T21:12:15.549Z,6.53
2023-05-14T21:17:11.075Z,6.45
2023-05-14T21:19:39.152Z,7.43
2023-05-14T21:22:07.633Z,6.75
2023-05-14T21:24:35.617Z,7.60
2023-05-14T21:27:03.574Z,6.75
2023-05-14T21:29:32.751Z,7.65
2023-05-14T21:34:29.778Z,8.63
2023-05-14T21:36:59.005Z,7.78
2023-05-14T21:39:26.814Z,9.30
2023-05-14T21:41:54.638Z,10.35
2023-05-14T21:44:22.584Z,9.57
2023-05-14T21:46:51.787Z,10.85
2023-05-14T21:51:52.783Z,11.25
2023-05-14T21:54:20.903Z,12.15
2023-05-14T21:56:48.814Z,11.68
2023-05-14T21:59:16.661Z,12.90
2023-05-14T22:04:16.731Z,13.00
2023-05-14T22:06:44.561Z,13.88
2023-05-14T22:09:12.396Z,13.48
2023-05-14T22:11:40.237Z,13.23
2023-05-14T22:14:08.035Z,13.05
2023-05-14T22:16:35.874Z,14.32
2023-05-14T22:19:05.947Z,12.90
2023-05-14T22:21:35.768Z,13.93
2023-05-14T22:26:31.331Z,13.60
2023-05-14T22:28:59.154Z,13.60
2023-05-14T22:31:27.003Z,14.50
2023-05-14T22:33:54.874Z,14.15
2023-05-14T22:36:22.633Z,14.43
2023-05-14T22:38:51.882Z,13.82
2023-05-14T22:43:48.649Z,15.48
2023-05-14T22:46:16.653Z,15.85
2023-05-14T22:48:44.989Z,15.55
2023-05-14T22:51:12.754Z,16.43
2023-05-14T22:53:40.541Z,15.63
2023-05-14T22:56:09.790Z,16.60
2023-05-14T23:01:05.254Z,16.02
2023-05-14T23:03:33.069Z,17.00
2023-05-14T23:06:00.922Z,16.83
2023-05-14T23:08:28.696Z,17.02
2023-05-14T23:10:56.501Z,18.20
2023-05-14T23:13:25.681Z,16.17
2023-05-14T23:15:53.591Z,17.25
2023-05-14T23:18:21.414Z,18.58
2023-05-14T23:20:49.313Z,19.40
2023-05-14T23:23:17.149Z,17.63
2023-05-14T23:25:45.261Z,18.73
2023-05-14T23:28:13.181Z,18.38
2023-05-14T23:30:42.358Z,20.08
2023-05-14T23:33:10.267Z,18.95
2023-05-14T23:35:39.501Z,18.60
2023-05-14T23:40:35.387Z,18.58
2023-05-14T23:43:03.239Z,19.92
2023-05-14T23:45:31.667Z,18.85
2023-05-14T23:48:02.072Z,20.47
2023-05-14T23:50:29.893Z,20.90
2023-05-14T23:52:57.742Z,19.88
2023-05-14T23:55:25.975Z,21.48
2023-05-14T23:57:53.944Z,20.10
